createdAt,value
2022-08-29T00:02:26.890Z,31.00
2022-08-29T00:04:55.310Z,31.04
2022-08-29T00:07:23.230Z,31.10
2022-08-29T00:09:51.195Z,31.17
2022-08-29T00:12:19.263Z,30.74
2022-08-29T00:14:48.552Z,30.80
2022-08-29T00:17:16.477Z,30.99
2022-08-29T00:19:44.530Z,31.01
2022-08-29T00:22:12.543Z,30.79
2022-08-29T00:24:40.528Z,30.77
2022-08-29T00:27:08.463Z,30.89
2022-08-29T00:29:36.512Z,31.36
2022-08-29T00:32:06.108Z,31.36
2022-08-29T00:34:34.563Z,31.15
2022-08-29T00:37:02.631Z,31.60
2022-08-29T00:39:32.885Z,31.57
2022-08-29T00:42:01.026Z,31.58
2022-08-29T00:44:29.266Z,31.25
2022-08-29T00:46:59.836Z,31.30
2022-08-29T00:49:35.607Z,31.31
2022-08-29T00:52:09.656Z,31.60
2022-08-29T00:54:39.437Z,31.09
2022-08-29T00:57:08.033Z,31.62
2022-08-29T00:59:39.873Z,31.32
2022-08-29T01:02:11.183Z,31.92
2022-08-29T01:04:40.959Z,31.80
2022-08-29T01:07:11.080Z,31.77
2022-08-29T01:09:40.658Z,31.53
2022-08-29T01:12:17.106Z,31.58
2022-08-29T01:14:49.879Z,31.85
2022-08-29T01:17:26.029Z,32.19
2022-08-29T01:19:58.982Z,32.27
2022-08-29T01:22:42.912Z,32.62
2022-08-29T01:25:16.217Z,31.97
2022-08-29T01:27:48.056Z,31.80
2022-08-29T01:30:16.275Z,32.37
2022-08-29T01:32:44.415Z,32.38
2022-08-29T01:35:12.891Z,32.05
2022-08-29T01:37:43.814Z,32.20
2022-08-29T01:40:14.572Z,32.61
2022-08-29T01:42:42.571Z,32.60
2022-08-29T01:45:11.435Z,32.53
2022-08-29T01:47:40.157Z,32.08
2022-08-29T01:50:10.925Z,32.13
2022-08-29T01:52:39.346Z,32.65
2022-08-29T01:55:07.760Z,32.63
2022-08-29T01:57:39.497Z,32.81
2022-08-29T02:00:10.726Z,32.78
2022-08-29T02:02:43.379Z,33.00
2022-08-29T02:05:11.620Z,32.92
2022-08-29T02:07:39.535Z,32.96
2022-08-29T02:10:08.756Z,32.90
2022-08-29T02:12:38.385Z,32.96
2022-08-29T02:15:07.591Z,32.77
2022-08-29T02:17:35.674Z,32.93
2022-08-29T02:20:05.747Z,32.85
2022-08-29T02:22:36.908Z,32.81
2022-08-29T02:25:24.585Z,33.44
2022-08-29T02:27:54.577Z,33.18
2022-08-29T02:30:23.488Z,32.99
2022-08-29T02:32:51.434Z,33.08
2022-08-29T02:35:19.872Z,32.88
2022-08-29T02:37:48.947Z,33.56
2022-08-29T02:40:18.201Z,33.04
2022-08-29T02:42:46.368Z,33.54
2022-08-29T02:45:17.229Z,33.32
2022-08-29T02:47:45.379Z,33.17
2022-08-29T02:50:13.863Z,33.57
2022-08-29T02:52:42.638Z,33.22
2022-08-29T02:56:00.505Z,34.14
2022-08-29T02:58:28.813Z,33.92
2022-08-29T03:00:59.354Z,34.10
2022-08-29T03:03:28.268Z,34.10
2022-08-29T03:05:56.683Z,33.68
2022-08-29T03:08:24.673Z,34.13
2022-08-29T03:10:52.647Z,34.07
2022-08-29T03:13:20.984Z,34.17
2022-08-29T03:16:16.035Z,34.79
2022-08-29T03:18:44.181Z,33.99
2022-08-29T03:21:17.088Z,34.72
2022-08-29T03:23:45.417Z,34.18
2022-08-29T03:26:13.348Z,34.51
2022-08-29T03:28:41.380Z,34.07
2022-08-29T03:31:09.370Z,34.31
2022-08-29T03:33:39.164Z,34.16
2022-08-29T03:36:14.423Z,34.66
2022-08-29T03:38:43.451Z,34.43
2022-08-29T03:41:11.570Z,34.42
2022-08-29T03:43:39.860Z,34.48
2022-08-29T03:46:33.294Z,35.25
2022-08-29T03:49:02.983Z,35.07
2022-08-29T03:51:31.603Z,34.84
2022-08-29T03:53:59.932Z,35.28
2022-08-29T03:56:28.863Z,35.38
2022-08-29T03:58:58.352Z,35.00
2022-08-29T04:01:29.200Z,35.39
2022-08-29T04:03:58.295Z,35.49
2022-08-29T04:06:29.346Z,35.73
2022-08-29T04:08:59.092Z,35.72
2022-08-29T04:11:28.235Z,35.28
2022-08-29T04:13:56.763Z,35.26
2022-08-29T04:16:30.878Z,35.44
2022-08-29T04:18:59.990Z,35.72
2022-08-29T04:21:29.481Z,35.90
2022-08-29T04:23:57.794Z,35.55
2022-08-29T04:26:41.011Z,35.74
2022-08-29T04:29:10.302Z,35.81
2022-08-29T04:31:39.705Z,35.75
2022-08-29T04:34:09.838Z,35.65
2022-08-29T04:36:41.424Z,36.27
2022-08-29T04:39:10.892Z,36.03
2022-08-29T04:41:39.991Z,36.05
2022-08-29T04:44:09.243Z,36.33
2022-08-29T04:46:37.368Z,36.02
2022-08-29T04:49:05.687Z,36.24
2022-08-29T04:51:35.597Z,36.61
2022-08-29T04:54:06.754Z,36.39
2022-08-29T04:56:35.538Z,36.68
2022-08-29T04:59:05.346Z,36.69
2022-08-29T05:01:35.171Z,36.40
2022-08-29T05:04:03.403Z,36.89
2022-08-29T05:06:31.560Z,36.38
2022-08-29T05:09:00.188Z,36.80
2022-08-29T05:11:32.214Z,36.93
2022-08-29T05:14:01.099Z,37.08
2022-08-29T05:16:31.381Z,36.82
2022-08-29T05:19:00.672Z,36.80
2022-08-29T05:21:35.354Z,37.18
2022-08-29T05:24:05.515Z,36.98
2022-08-29T05:26:37.794Z,37.49
2022-08-29T05:29:08.659Z,36.90
2022-08-29T05:31:38.239Z,37.02
2022-08-29T05:34:31.927Z,36.94
2022-08-29T05:36:54.870Z,37.38
2022-08-29T05:39:22.953Z,37.39
2022-08-29T05:41:55.878Z,37.57
2022-08-29T05:44:24.089Z,37.53
2022-08-29T05:46:52.304Z,37.38
2022-08-29T05:49:20.941Z,37.04
2022-08-29T05:51:49.223Z,37.48
2022-08-29T05:54:17.705Z,37.20
2022-08-29T05:56:45.882Z,37.32
2022-08-29T05:59:17.494Z,37.37
2022-08-29T06:01:47.291Z,37.29
2022-08-29T06:04:15.654Z,37.23
2022-08-29T06:06:43.881Z,37.33
2022-08-29T06:09:12.336Z,37.31
2022-08-29T06:11:40.376Z,37.87
2022-08-29T06:14:08.322Z,37.88
2022-08-29T06:16:38.280Z,37.70
2022-08-29T06:19:06.664Z,37.40
2022-08-29T06:21:36.888Z,37.69
2022-08-29T06:24:05.408Z,37.57
2022-08-29T06:26:34.869Z,37.48
2022-08-29T06:29:06.178Z,37.94
2022-08-29T06:31:34.942Z,37.73
2022-08-29T06:34:06.429Z,37.65
2022-08-29T06:36:48.558Z,38.10
2022-08-29T06:39:17.393Z,37.93
2022-08-29T06:41:45.453Z,37.73
2022-08-29T06:44:15.299Z,37.68
2022-08-29T06:46:47.156Z,37.74
2022-08-29T06:49:19.007Z,38.06
2022-08-29T06:51:56.812Z,38.24
2022-08-29T06:54:28.828Z,38.08
2022-08-29T06:56:57.924Z,37.84
2022-08-29T06:59:25.904Z,37.87
2022-08-29T07:01:55.286Z,37.87
2022-08-29T07:04:26.411Z,37.86
2022-08-29T07:06:54.745Z,38.16
2022-08-29T07:09:22.797Z,38.01
2022-08-29T07:11:50.863Z,38.54
2022-08-29T07:14:18.827Z,38.61
2022-08-29T07:16:46.877Z,38.48
2022-08-29T07:19:14.868Z,38.29
2022-08-29T07:21:44.336Z,37.85
2022-08-29T07:24:12.367Z,37.99
2022-08-29T07:26:43.462Z,37.30
2022-08-29T07:29:14.017Z,36.86
2022-08-29T07:31:42.572Z,36.46
2022-08-29T07:34:10.764Z,35.66
2022-08-29T07:36:38.973Z,35.08
2022-08-29T07:39:33.146Z,34.76
2022-08-29T07:42:01.245Z,34.84
2022-08-29T07:44:34.326Z,34.61
2022-08-29T07:47:02.826Z,34.40
2022-08-29T07:49:40.973Z,33.73
2022-08-29T07:52:09.293Z,33.47
2022-08-29T07:54:38.814Z,33.51
2022-08-29T07:57:06.841Z,33.00
2022-08-29T07:59:35.107Z,32.79
2022-08-29T08:02:03.866Z,33.25
2022-08-29T08:04:31.935Z,32.50
2022-08-29T08:07:00.248Z,32.50
2022-08-29T08:09:28.637Z,32.06
2022-08-29T08:11:58.206Z,31.91
2022-08-29T08:14:34.626Z,31.54
2022-08-29T08:17:03.413Z,31.33
2022-08-29T08:19:31.601Z,31.13
2022-08-29T08:21:59.835Z,31.22
2022-08-29T08:24:27.840Z,31.20
2022-08-29T08:26:58.004Z,30.53
2022-08-29T08:29:26.380Z,30.33
2022-08-29T08:31:55.854Z,30.47
2022-08-29T08:34:23.945Z,30.20
2022-08-29T08:36:51.921Z,29.90
2022-08-29T08:39:20.544Z,29.93
2022-08-29T08:41:58.345Z,29.14
2022-08-29T08:44:58.547Z,28.54
2022-08-29T08:47:29.715Z,29.57
2022-08-29T08:50:04.746Z,28.94
2022-08-29T08:52:41.564Z,28.89
2022-08-29T08:55:19.639Z,28.71
2022-08-29T08:57:55.817Z,28.01
2022-08-29T09:00:27.299Z,28.51
2022-08-29T09:03:05.326Z,26.95
2022-08-29T09:05:48.548Z,26.95
2022-08-29T09:08:26.168Z,27.82
2022-08-29T09:10:59.350Z,27.82
2022-08-29T09:13:47.980Z,27.03
2022-08-29T09:16:25.346Z,27.11
2022-08-29T09:18:54.209Z,27.88
2022-08-29T09:21:40.516Z,27.73
2022-08-29T09:24:13.671Z,27.58
2022-08-29T09:26:41.935Z,27.66
2022-08-29T09:29:10.079Z,27.18
2022-08-29T09:31:41.140Z,27.09
2022-08-29T09:34:12.755Z,27.27
2022-08-29T09:36:45.850Z,27.25
2022-08-29T09:39:33.645Z,26.93
2022-08-29T09:42:17.563Z,26.44
2022-08-29T09:44:54.547Z,26.46
2022-08-29T09:47:27.318Z,26.55
2022-08-29T09:50:09.741Z,25.85
2022-08-29T09:52:38.292Z,26.57
2022-08-29T09:55:24.013Z,26.48
2022-08-29T09:57:54.885Z,26.91
2022-08-29T10:00:28.463Z,26.35
2022-08-29T10:03:01.439Z,26.32
2022-08-29T10:05:41.445Z,26.00
2022-08-29T10:08:26.722Z,25.34
2022-08-29T10:10:58.616Z,26.44
2022-08-29T10:13:36.151Z,26.14
2022-08-29T10:16:14.569Z,24.92
2022-08-29T10:18:49.471Z,25.60
2022-08-29T10:21:26.968Z,25.98
2022-08-29T10:24:05.570Z,25.60
2022-08-29T10:26:41.534Z,25.67
2022-08-29T10:29:20.138Z,25.58
2022-08-29T10:31:57.291Z,25.55
2022-08-29T10:34:45.982Z,25.44
2022-08-29T10:37:21.171Z,25.16
2022-08-29T10:39:58.575Z,25.54
2022-08-29T10:42:28.038Z,25.82
2022-08-29T10:45:06.500Z,25.07
2022-08-29T10:47:40.131Z,25.51
2022-08-29T10:50:47.899Z,24.80
2022-08-29T10:53:21.166Z,25.34
2022-08-29T10:55:55.726Z,25.09
2022-08-29T10:58:45.122Z,25.02
2022-08-29T11:01:18.942Z,25.34
2022-08-29T11:03:59.657Z,25.28
2022-08-29T11:09:11.216Z,24.97
2022-08-29T11:11:45.798Z,24.96
2022-08-29T11:14:26.150Z,24.93
2022-08-29T11:16:57.770Z,24.95
2022-08-29T11:19:36.298Z,25.26
2022-08-29T11:22:13.813Z,25.06
2022-08-29T11:24:47.154Z,25.06
2022-08-29T11:27:27.945Z,24.18
2022-08-29T11:30:04.124Z,24.85
2022-08-29T11:32:40.391Z,23.61
2022-08-29T11:35:18.065Z,23.25
2022-08-29T11:38:33.269Z,23.92
2022-08-29T11:41:27.138Z,23.56
2022-08-29T11:44:00.145Z,23.54
2022-08-29T11:46:49.165Z,23.38
2022-08-29T11:49:40.550Z,23.42
2022-08-29T11:52:22.480Z,23.48
2022-08-29T11:55:26.534Z,23.71
2022-08-29T11:58:03.281Z,23.78
2022-08-29T12:00:52.467Z,24.10
2022-08-29T12:03:57.940Z,23.97
2022-08-29T12:06:38.220Z,23.28
2022-08-29T12:09:18.544Z,23.61
2022-08-29T12:12:37.626Z,23.27
2022-08-29T12:15:47.174Z,23.36
2022-08-29T12:18:48.909Z,24.14
2022-08-29T12:21:50.063Z,23.86
2022-08-29T12:24:31.497Z,23.72
2022-08-29T12:27:00.051Z,23.83
2022-08-29T12:29:33.390Z,23.21
2022-08-29T12:32:45.556Z,22.49
2022-08-29T12:35:30.694Z,22.86
2022-08-29T12:38:13.361Z,22.73
2022-08-29T12:41:02.227Z,22.40
2022-08-29T12:43:37.919Z,22.43
2022-08-29T12:46:17.890Z,22.19
2022-08-29T12:48:57.361Z,22.74
2022-08-29T12:51:38.180Z,22.13
2022-08-29T12:54:07.224Z,22.34
2022-08-29T12:56:35.874Z,22.63
2022-08-29T12:59:06.179Z,22.21
2022-08-29T13:01:39.907Z,21.99
2022-08-29T13:04:15.980Z,21.53
2022-08-29T13:06:54.440Z,21.64
2022-08-29T13:09:27.726Z,20.85
2022-08-29T13:12:12.583Z,20.81
2022-08-29T13:14:55.698Z,21.00
2022-08-29T13:17:28.533Z,20.91
2022-08-29T13:20:33.689Z,20.92
2022-08-29T13:23:21.369Z,21.09
2022-08-29T13:25:53.251Z,21.16
2022-08-29T13:28:27.695Z,20.34
2022-08-29T13:31:22.403Z,20.33
2022-08-29T13:34:21.265Z,20.42
2022-08-29T13:37:02.497Z,20.14
2022-08-29T13:39:41.156Z,19.84
2022-08-29T13:42:22.378Z,20.14
2022-08-29T13:45:09.246Z,20.43
2022-08-29T13:47:46.916Z,19.98
2022-08-29T13:50:17.474Z,20.45
2022-08-29T13:52:45.467Z,19.90
2022-08-29T13:55:13.483Z,19.85
2022-08-29T13:57:42.668Z,19.63
2022-08-29T14:00:13.720Z,19.87
2022-08-29T14:02:45.176Z,19.86
2022-08-29T14:05:14.469Z,19.87
2022-08-29T14:07:45.199Z,19.92
2022-08-29T14:10:16.537Z,19.88
2022-08-29T14:12:45.356Z,19.78
2022-08-29T14:15:17.745Z,19.66
2022-08-29T14:17:47.908Z,19.57
2022-08-29T14:20:17.608Z,19.75
2022-08-29T14:22:47.705Z,19.71
2022-08-29T14:25:18.240Z,20.08
2022-08-29T14:27:48.365Z,19.92
2022-08-29T14:30:19.327Z,20.04
2022-08-29T14:32:47.385Z,20.30
2022-08-29T14:35:25.850Z,20.32
2022-08-29T14:37:57.144Z,20.08
2022-08-29T14:40:26.397Z,20.27
2022-08-29T14:42:57.368Z,20.33
2022-08-29T14:45:28.001Z,20.07
2022-08-29T14:47:56.091Z,20.06
2022-08-29T14:50:24.391Z,20.13
2022-08-29T14:52:52.820Z,19.97
2022-08-29T14:55:23.918Z,19.94
2022-08-29T14:57:52.237Z,19.93
2022-08-29T15:00:22.913Z,19.97
2022-08-29T15:02:52.486Z,20.44
2022-08-29T15:05:21.053Z,20.10
2022-08-29T15:07:49.099Z,19.99
2022-08-29T15:10:20.217Z,19.71
2022-08-29T15:12:49.730Z,19.97
2022-08-29T15:15:18.102Z,20.04
2022-08-29T15:17:46.886Z,19.87
2022-08-29T15:20:35.731Z,19.92
2022-08-29T15:23:04.023Z,19.96
2022-08-29T15:25:32.499Z,19.96
2022-08-29T15:28:01.908Z,20.18
2022-08-29T15:30:29.895Z,20.04
2022-08-29T15:32:57.997Z,19.97
2022-08-29T15:35:26.032Z,20.21
2022-08-29T15:37:54.751Z,20.04
2022-08-29T15:40:23.317Z,19.89
2022-08-29T15:42:51.821Z,19.68
2022-08-29T15:45:22.441Z,20.18
2022-08-29T15:47:51.435Z,20.13
2022-08-29T15:50:23.321Z,20.34
2022-08-29T15:52:51.340Z,20.27
2022-08-29T15:55:19.379Z,20.47
2022-08-29T15:57:51.847Z,20.41
2022-08-29T16:00:29.658Z,20.65
2022-08-29T16:02:58.014Z,20.89
2022-08-29T16:05:26.343Z,20.19
2022-08-29T16:07:54.472Z,20.64
2022-08-29T16:10:22.649Z,20.17
2022-08-29T16:12:50.591Z,19.96
2022-08-29T16:15:18.568Z,20.19
2022-08-29T16:17:48.218Z,20.34
2022-08-29T16:20:16.339Z,20.74
2022-08-29T16:22:45.591Z,20.84
2022-08-29T16:25:15.082Z,20.29
2022-08-29T16:27:43.497Z,20.40
2022-08-29T16:30:12.290Z,20.28
2022-08-29T16:32:40.540Z,20.33
2022-08-29T16:35:11.830Z,20.07
2022-08-29T16:37:40.206Z,20.32
2022-08-29T16:40:09.481Z,19.97
2022-08-29T16:42:38.586Z,20.05
2022-08-29T16:45:08.220Z,20.19
2022-08-29T16:47:36.303Z,20.37
2022-08-29T16:50:05.326Z,20.48
2022-08-29T16:52:34.855Z,20.33
2022-08-29T16:55:03.059Z,20.67
2022-08-29T16:57:31.194Z,20.84
2022-08-29T16:59:59.217Z,20.87
2022-08-29T17:02:27.371Z,20.90
2022-08-29T17:04:55.419Z,20.77
2022-08-29T17:07:32.376Z,20.76
2022-08-29T17:10:02.179Z,20.18
2022-08-29T17:12:29.964Z,20.91
2022-08-29T17:14:57.584Z,20.60
2022-08-29T17:17:25.787Z,20.53
2022-08-29T17:19:53.740Z,20.98
2022-08-29T17:22:22.353Z,20.64
2022-08-29T17:24:50.589Z,20.82
2022-08-29T17:27:21.638Z,21.04
2022-08-29T17:29:50.304Z,20.61
2022-08-29T17:32:18.693Z,21.26
2022-08-29T17:34:47.993Z,21.06
2022-08-29T17:37:16.455Z,21.43
2022-08-29T17:39:44.525Z,21.55
2022-08-29T17:42:12.704Z,21.43
2022-08-29T17:44:45.717Z,20.99
2022-08-29T17:47:13.779Z,21.36
2022-08-29T17:49:41.895Z,21.26
2022-08-29T17:52:10.391Z,21.42
2022-08-29T17:54:38.565Z,21.48
2022-08-29T17:57:07.445Z,21.15
2022-08-29T17:59:38.809Z,21.33
2022-08-29T18:02:09.508Z,21.42
2022-08-29T18:04:38.725Z,21.54
2022-08-29T18:07:06.699Z,21.72
2022-08-29T18:09:34.655Z,21.38
2022-08-29T18:12:02.883Z,21.88
2022-08-29T18:14:30.859Z,21.59
2022-08-29T18:16:58.939Z,21.52
2022-08-29T18:19:28.399Z,21.45
2022-08-29T18:21:56.335Z,21.76
2022-08-29T18:24:24.348Z,21.47
2022-08-29T18:26:53.299Z,21.60
2022-08-29T18:29:21.882Z,21.85
2022-08-29T18:31:50.373Z,21.68
2022-08-29T18:34:19.293Z,21.73
2022-08-29T18:36:49.264Z,21.72
2022-08-29T18:39:19.037Z,21.77
2022-08-29T18:41:47.598Z,21.94
2022-08-29T18:44:15.545Z,22.03
2022-08-29T18:46:47.973Z,22.04
2022-08-29T18:49:17.153Z,21.73
2022-08-29T18:51:45.124Z,21.88
2022-08-29T18:54:18.923Z,22.18
2022-08-29T18:56:47.967Z,22.25
2022-08-29T18:59:15.876Z,21.93
2022-08-29T19:01:43.965Z,22.38
2022-08-29T19:04:12.033Z,22.12
2022-08-29T19:06:39.964Z,22.21
2022-08-29T19:09:08.161Z,22.36
2022-08-29T19:11:37.699Z,22.39
2022-08-29T19:14:05.804Z,22.37
2022-08-29T19:16:36.867Z,22.69
2022-08-29T19:19:05.167Z,22.31
2022-08-29T19:21:39.780Z,22.65
2022-08-29T19:24:07.970Z,22.76
2022-08-29T19:26:39.998Z,22.84
2022-08-29T19:29:12.906Z,22.97
2022-08-29T19:31:41.459Z,22.62
2022-08-29T19:34:09.623Z,22.85
2022-08-29T19:36:39.212Z,22.84
2022-08-29T19:39:07.351Z,22.84
2022-08-29T19:41:38.319Z,23.12
2022-08-29T19:44:06.764Z,23.09
2022-08-29T19:46:36.283Z,23.22
2022-08-29T19:52:38.589Z,23.22
2022-08-29T19:55:10.495Z,23.36
2022-08-29T19:57:40.337Z,22.92
2022-08-29T20:00:13.973Z,23.37
2022-08-29T20:02:42.715Z,23.66
2022-08-29T20:05:12.851Z,23.49
2022-08-29T20:07:41.519Z,23.86
2022-08-29T20:10:11.424Z,23.79
2022-08-29T20:12:41.490Z,23.59
2022-08-29T20:15:12.764Z,23.42
2022-08-29T20:17:43.089Z,23.44
2022-08-29T20:20:14.897Z,23.89
2022-08-29T20:22:43.137Z,23.59
2022-08-29T20:25:11.537Z,23.90
2022-08-29T20:27:41.697Z,23.83
2022-08-29T20:30:12.640Z,23.88
2022-08-29T20:32:40.835Z,24.43
2022-08-29T20:35:09.511Z,24.25
2022-08-29T20:37:36.908Z,24.49
2022-08-29T20:40:06.400Z,24.51
2022-08-29T20:42:34.739Z,24.70
2022-08-29T20:45:04.174Z,24.56
2022-08-29T20:47:32.659Z,24.26
2022-08-29T20:50:01.431Z,24.49
2022-08-29T20:52:29.444Z,24.79
2022-08-29T20:54:57.523Z,25.10
2022-08-29T20:57:26.070Z,25.08
2022-08-29T20:59:54.186Z,24.89
2022-08-29T21:02:23.624Z,25.02
2022-08-29T21:05:09.004Z,25.15
2022-08-29T21:07:37.147Z,25.13
2022-08-29T21:10:05.857Z,25.34
2022-08-29T21:12:33.928Z,25.25
2022-08-29T21:15:01.798Z,25.03
2022-08-29T21:17:31.142Z,25.40
2022-08-29T21:19:59.102Z,25.52
2022-08-29T21:22:52.249Z,25.83
2022-08-29T21:25:20.955Z,25.73
2022-08-29T21:27:49.115Z,25.65
2022-08-29T21:30:17.250Z,25.96
2022-08-29T21:32:46.680Z,26.01
2022-08-29T21:35:15.216Z,26.05
2022-08-29T21:37:43.492Z,26.38
2022-08-29T21:40:13.476Z,26.42
2022-08-29T21:42:42.209Z,26.42
2022-08-29T21:45:11.404Z,26.40
2022-08-29T21:47:39.414Z,26.35
2022-08-29T21:50:09.734Z,26.71
2022-08-29T21:52:37.826Z,26.68
2022-08-29T21:55:06.932Z,26.61
2022-08-29T21:57:51.922Z,27.11
2022-08-29T22:00:20.996Z,26.67
2022-08-29T22:02:49.895Z,27.01
2022-08-29T22:05:20.078Z,27.04
2022-08-29T22:07:49.073Z,27.19
2022-08-29T22:10:20.236Z,27.10
2022-08-29T22:12:48.761Z,27.06
2022-08-29T22:15:34.659Z,27.20
2022-08-29T22:18:03.065Z,27.14
2022-08-29T22:20:33.747Z,27.46
2022-08-29T22:23:01.842Z,27.01
2022-08-29T22:25:29.865Z,27.13
2022-08-29T22:27:58.721Z,27.01
2022-08-29T22:30:31.794Z,27.22
2022-08-29T22:33:01.208Z,27.42
2022-08-29T22:35:29.634Z,27.63
2022-08-29T22:37:59.488Z,27.59
2022-08-29T22:40:28.078Z,27.25
2022-08-29T22:42:57.630Z,27.79
2022-08-29T22:45:25.740Z,27.38
2022-08-29T22:47:53.683Z,27.98
2022-08-29T22:50:24.391Z,27.52
2022-08-29T22:52:56.458Z,27.87
2022-08-29T22:57:53.536Z,28.16
2022-08-29T23:00:23.633Z,28.11
2022-08-29T23:02:52.914Z,28.25
2022-08-29T23:05:24.111Z,27.82
2022-08-29T23:07:52.641Z,28.34
2022-08-29T23:10:22.054Z,28.22
2022-08-29T23:12:51.692Z,28.31
2022-08-29T23:15:19.762Z,28.49
2022-08-29T23:17:47.898Z,28.29
2022-08-29T23:20:19.335Z,28.25
2022-08-29T23:22:47.360Z,28.85
2022-08-29T23:25:16.799Z,28.61
2022-08-29T23:27:44.813Z,28.42
2022-08-29T23:30:15.460Z,28.98
2022-08-29T23:32:43.458Z,29.09
2022-08-29T23:35:11.721Z,29.22
2022-08-29T23:37:39.678Z,29.11
2022-08-29T23:40:09.598Z,29.43
2022-08-29T23:42:38.194Z,29.32
2022-08-29T23:45:07.911Z,29.22
2022-08-29T23:47:37.407Z,29.38
2022-08-29T23:50:06.675Z,29.40
2022-08-29T23:52:34.755Z,29.65
2022-08-29T23:55:02.999Z,29.80
2022-08-29T23:57:30.992Z,29.77
